Time;durP1;ratioP1;P1;durP2;ratioP2;P2;SDS_P1;SDS_P2;PMS_P1;PMS_P2;Temp;Humidity;BMP_temperature;BMP_pressure;BME280_temperature;BME280_humidity;BME280_pressure;Samples;Min_cycle;Max_cycle;Signal;HPM_P1;HPM_P2
2023/05/30 00:00:43;;;;;;;22.98;13.73;;;;;;;-140.66;100.00;55571.53;5036356;28;20053;-80
2023/05/30 00:03:29;;;;;;;23.08;14.02;;;;;;;-140.66;100.00;55571.53;5023387;28;20037;-80
2023/05/30 00:06:15;;;;;;;20.95;13.68;;;;;;;-140.66;100.00;55571.53;5036669;28;20434;-81
2023/05/30 00:09:02;;;;;;;21.15;13.82;;;;;;;-140.66;100.00;55571.53;5038059;28;20033;-81
2023/05/30 00:11:48;;;;;;;24.60;13.98;;;;;;;-140.66;100.00;55571.53;5036696;28;20362;-81
2023/05/30 00:14:36;;;;;;;19.00;14.15;;;;;;;-140.66;100.00;55571.53;5036335;28;20029;-81
2023/05/30 00:17:22;;;;;;;25.85;15.75;;;;;;;-140.66;100.00;55571.53;5036882;28;20116;-81
2023/05/30 00:20:08;;;;;;;27.60;14.55;;;;;;;-140.66;100.00;55571.53;5035528;28;20057;-80
2023/05/30 00:22:54;;;;;;;24.52;15.63;;;;;;;-140.66;100.00;55571.53;5021762;28;20038;-81
2023/05/30 00:25:40;;;;;;;26.35;15.55;;;;;;;-140.66;100.00;55571.53;5022243;28;20145;-80
2023/05/30 00:28:26;;;;;;;23.20;14.68;;;;;;;-140.66;100.00;55571.53;5021325;28;20025;-81
2023/05/30 00:31:12;;;;;;;23.10;15.02;;;;;;;-140.66;100.00;55571.53;5035806;28;20377;-79
2023/05/30 00:33:57;;;;;;;21.95;15.23;;;;;;;-140.66;100.00;55571.53;5036066;28;20026;-80
2023/05/30 00:36:43;;;;;;;23.98;15.55;;;;;;;-140.66;100.00;55571.53;5022132;28;20032;-80
2023/05/30 00:39:29;;;;;;;24.15;15.73;;;;;;;-140.66;100.00;55571.53;5021860;28;20064;-80
2023/05/30 00:42:15;;;;;;;20.30;14.90;;;;;;;-140.66;100.00;55571.53;5035992;28;20087;-78
2023/05/30 00:45:00;;;;;;;22.42;15.55;;;;;;;-140.66;100.00;55571.53;5022210;28;20445;-80
2023/05/30 00:47:47;;;;;;;22.88;15.48;;;;;;;-140.66;100.00;55571.53;5036830;28;20068;-79
2023/05/30 00:50:34;;;;;;;27.48;15.50;;;;;;;-140.66;100.00;55571.53;5035235;28;20369;-79
2023/05/30 00:53:21;;;;;;;25.20;15.05;;;;;;;-140.66;100.00;55571.53;5035407;28;20374;-79
2023/05/30 00:56:08;;;;;;;20.85;14.60;;;;;;;-140.66;100.00;55571.53;5021800;28;20035;-80
2023/05/30 00:58:55;;;;;;;20.85;14.77;;;;;;;-140.66;100.00;55571.53;5021511;28;20450;-79
2023/05/30 01:01:43;;;;;;;19.00;14.82;;;;;;;-140.66;100.00;55571.53;5036252;28;20123;-80
2023/05/30 01:04:29;;;;;;;21.98;14.45;;;;;;;-140.66;100.00;55571.53;5022364;28;20163;-80
2023/05/30 01:07:15;;;;;;;25.13;14.43;;;;;;;-140.66;100.00;55571.53;5036211;28;20057;-80
2023/05/30 01:10:01;;;;;;;20.02;14.25;;;;;;;-140.66;100.00;55571.53;5021095;28;20047;-80
2023/05/30 01:13:09;;;;;;;23.90;14.48;;;;;;;-140.66;100.00;55571.53;5022241;28;20025;-80
2023/05/30 01:16:03;;;;;;;24.05;14.05;;;;;;;-140.66;100.00;55571.53;5020738;28;20025;-80
2023/05/30 01:18:58;;;;;;;26.00;14.57;;;;;;;-140.66;100.00;55571.53;5036547;28;20029;-79
2023/05/30 01:21:44;;;;;;;22.38;14.25;;;;;;;-140.66;100.00;55571.53;5020672;28;20124;-80
2023/05/30 01:24:36;;;;;;;20.80;13.68;;;;;;;-140.66;100.00;55571.53;5036965;28;20033;-79
2023/05/30 01:27:54;;;;;;;17.20;13.65;;;;;;;-140.66;100.00;55571.53;5035873;28;20104;-79
2023/05/30 01:30:52;;;;;;;24.10;14.38;;;;;;;-140.66;100.00;55571.53;5020258;28;20517;-79
2023/05/30 01:33:39;;;;;;;21.77;14.70;;;;;;;-140.66;100.00;55571.53;5035953;28;20026;-78
2023/05/30 01:36:26;;;;;;;21.95;14.20;;;;;;;-140.66;100.00;55571.53;5020982;28;20026;-79
2023/05/30 01:39:12;;;;;;;18.52;12.30;;;;;;;-140.66;100.00;55571.53;5036283;28;20057;-81
2023/05/30 01:41:57;;;;;;;21.60;13.07;;;;;;;-140.66;100.00;55571.53;5034603;28;20450;-80
2023/05/30 01:45:15;;;;;;;18.27;12.43;;;;;;;-140.66;100.00;55571.53;5035209;28;20029;-79
2023/05/30 01:48:24;;;;;;;20.50;13.07;;;;;;;-140.66;100.00;55571.53;5034505;28;20433;-78
2023/05/30 01:51:15;;;;;;;24.55;14.05;;;;;;;-140.66;100.00;55571.53;5035265;28;20120;-79
2023/05/30 01:54:04;;;;;;;19.65;12.63;;;;;;;-140.66;100.00;55571.53;5021132;28;20039;-80
2023/05/30 01:57:02;;;;;;;19.83;13.30;;;;;;;-140.66;100.00;55571.53;5022339;28;20026;-80
2023/05/30 01:59:49;;;;;;;20.30;12.48;;;;;;;-140.66;100.00;55571.53;5035575;28;20037;-81
2023/05/30 02:02:35;;;;;;;19.90;13.00;;;;;;;-140.66;100.00;55571.53;5033888;28;20001;-80
2023/05/30 02:05:22;;;;;;;19.35;12.38;;;;;;;-140.66;100.00;55571.53;5030958;28;20099;-80
2023/05/30 02:08:08;;;;;;;18.65;12.80;;;;;;;-140.66;100.00;55571.53;5036561;28;20022;-80
2023/05/30 02:10:53;;;;;;;23.42;13.18;;;;;;;-140.66;100.00;55571.53;5020482;28;20033;-80
2023/05/30 02:13:39;;;;;;;22.67;12.82;;;;;;;-140.66;100.00;55571.53;5034871;28;20021;-80
2023/05/30 02:16:25;;;;;;;16.70;11.82;;;;;;;-140.66;100.00;55571.53;5035736;28;20053;-80
2023/05/30 02:19:12;;;;;;;15.00;11.73;;;;;;;-140.66;100.00;55571.53;5035355;28;20035;-80
2023/05/30 02:21:58;;;;;;;20.88;11.70;;;;;;;-140.66;100.00;55571.53;5048718;28;20129;-78
2023/05/30 02:24:44;;;;;;;15.95;11.88;;;;;;;-140.66;100.00;55571.53;5042216;28;20327;-80
2023/05/30 02:27:30;;;;;;;18.20;12.32;;;;;;;-140.66;100.00;55571.53;5021151;28;20025;-79
2023/05/30 02:30:16;;;;;;;15.98;11.98;;;;;;;-140.66;100.00;55571.53;5019547;28;20094;-80
2023/05/30 02:33:02;;;;;;;18.52;11.23;;;;;;;-140.66;100.00;55571.53;5020308;28;20033;-81
2023/05/30 02:35:47;;;;;;;20.80;11.35;;;;;;;-140.66;100.00;55571.53;5020032;28;20080;-80
2023/05/30 02:38:33;;;;;;;16.58;12.52;;;;;;;-140.66;100.00;55571.53;5021048;28;20091;-80
2023/05/30 02:41:19;;;;;;;18.85;11.55;;;;;;;-140.66;100.00;55571.53;5034725;28;20037;-80
2023/05/30 02:44:06;;;;;;;17.42;11.52;;;;;;;-140.66;100.00;55571.53;5034252;28;20030;-80
2023/05/30 02:46:52;;;;;;;17.23;11.88;;;;;;;-140.66;100.00;55571.53;5019787;28;20472;-80
2023/05/30 02:49:38;;;;;;;20.65;12.27;;;;;;;-140.66;100.00;55571.53;5035320;28;20052;-80
2023/05/30 02:52:23;;;;;;;20.25;12.55;;;;;;;-140.66;100.00;55571.53;5021082;28;20032;-81
2023/05/30 02:55:09;;;;;;;18.13;12.65;;;;;;;-140.66;100.00;55571.53;5037608;28;20442;-80
2023/05/30 02:57:55;;;;;;;19.27;12.27;;;;;;;-140.66;100.00;55571.53;5023358;28;20036;-80
2023/05/30 03:00:41;;;;;;;19.15;12.98;;;;;;;-140.66;100.00;55571.53;5037679;28;20018;-80
2023/05/30 03:03:29;;;;;;;19.52;12.27;;;;;;;-140.66;100.00;55571.53;5023570;28;20036;-80
2023/05/30 03:06:15;;;;;;;22.63;11.77;;;;;;;-140.66;100.00;55571.53;5023517;28;20049;-80
2023/05/30 03:09:01;;;;;;;14.90;11.85;;;;;;;-140.66;100.00;55571.53;5023913;28;20051;-80
2023/05/30 03:11:47;;;;;;;22.30;12.23;;;;;;;-140.66;100.00;55571.53;5023685;28;20041;-81
2023/05/30 03:14:32;;;;;;;16.40;11.35;;;;;;;-140.66;100.00;55571.53;5038404;28;20132;-81
2023/05/30 03:17:18;;;;;;;16.63;11.73;;;;;;;-140.66;100.00;55571.53;5037219;28;20099;-79
2023/05/30 03:20:06;;;;;;;14.30;10.95;;;;;;;-140.66;100.00;55571.53;5037024;28;20065;-80
2023/05/30 03:22:52;;;;;;;18.95;10.93;;;;;;;-140.66;100.00;55571.53;5038509;28;20061;-80
2023/05/30 03:25:38;;;;;;;20.42;12.70;;;;;;;-140.66;100.00;55571.53;5037776;28;20035;-80
2023/05/30 03:28:24;;;;;;;18.67;11.25;;;;;;;-140.66;100.00;55571.53;5037677;28;20477;-80
2023/05/30 03:31:11;;;;;;;24.85;12.43;;;;;;;-140.66;100.00;55571.53;5037090;28;20026;-80
2023/05/30 03:33:57;;;;;;;19.75;11.23;;;;;;;-140.66;100.00;55571.53;5036913;28;20030;-79
2023/05/30 03:36:43;;;;;;;21.48;11.50;;;;;;;-140.66;100.00;55571.53;5022874;28;20076;-80
2023/05/30 03:39:28;;;;;;;19.42;11.43;;;;;;;-140.66;100.00;55571.53;5036893;28;20113;-80
2023/05/30 03:42:14;;;;;;;18.67;11.35;;;;;;;-140.66;100.00;55571.53;5022311;28;20449;-79
2023/05/30 03:45:01;;;;;;;20.42;10.95;;;;;;;-140.66;100.00;55571.53;5037540;28;20037;-80
2023/05/30 03:47:46;;;;;;;16.05;11.15;;;;;;;-140.66;100.00;55571.53;5038463;28;20404;-81
2023/05/30 03:50:32;;;;;;;16.13;10.23;;;;;;;-140.66;100.00;55571.53;5037065;28;20025;-80
2023/05/30 03:53:18;;;;;;;14.75;10.73;;;;;;;-140.66;100.00;55571.53;5037304;28;20026;-80
2023/05/30 03:56:05;;;;;;;16.40;10.73;;;;;;;-140.66;100.00;55571.53;5037954;28;20037;-80
2023/05/30 03:58:52;;;;;;;19.60;10.55;;;;;;;-140.66;100.00;55571.53;5036941;28;20037;-80
2023/05/30 04:01:37;;;;;;;17.63;11.30;;;;;;;-140.66;100.00;55571.53;5022680;28;20051;-81
2023/05/30 04:04:23;;;;;;;14.20;10.27;;;;;;;-140.66;100.00;55571.53;5022725;28;20028;-80
2023/05/30 04:07:09;;;;;;;15.43;10.38;;;;;;;-140.66;100.00;55571.53;5025756;28;20033;-79
2023/05/30 04:09:54;;;;;;;18.70;10.23;;;;;;;-140.66;100.00;55571.53;5038797;28;20025;-79
2023/05/30 04:12:41;;;;;;;15.63;10.70;;;;;;;-140.66;100.00;55571.53;5038175;28;20439;-80
2023/05/30 04:15:27;;;;;;;17.27;11.60;;;;;;;-140.66;100.00;55571.53;5035933;28;20025;-80
2023/05/30 04:18:12;;;;;;;15.93;11.02;;;;;;;-140.66;100.00;55571.53;5037677;28;20022;-79
2023/05/30 04:20:58;;;;;;;20.13;11.23;;;;;;;-140.66;100.00;55571.53;5035862;28;20488;-80
2023/05/30 04:23:47;;;;;;;17.77;11.00;;;;;;;-140.66;100.00;55571.53;5022563;28;20048;-80
2023/05/30 04:26:34;;;;;;;18.88;11.50;;;;;;;-140.66;100.00;55571.53;5036068;28;20036;-80
2023/05/30 04:29:20;;;;;;;16.42;11.13;;;;;;;-140.66;100.00;55571.53;5036302;28;20056;-80
2023/05/30 04:32:06;;;;;;;22.98;11.10;;;;;;;-140.66;100.00;55571.53;5037119;28;20025;-79
2023/05/30 04:34:53;;;;;;;19.08;10.52;;;;;;;-140.66;100.00;55571.53;5037013;28;20087;-80
2023/05/30 04:37:43;;;;;;;16.52;10.90;;;;;;;-140.66;100.00;55571.53;5037240;28;20029;-80
2023/05/30 04:40:29;;;;;;;16.30;10.35;;;;;;;-140.66;100.00;55571.53;5036565;28;20029;-79
2023/05/30 04:43:15;;;;;;;16.25;10.73;;;;;;;-140.66;100.00;55571.53;5036389;28;20053;-79
2023/05/30 04:46:03;;;;;;;14.35;10.43;;;;;;;-140.66;100.00;55571.53;5021301;28;20378;-79
2023/05/30 04:48:53;;;;;;;14.98;10.13;;;;;;;-140.66;100.00;55571.53;5035709;28;20036;-80
2023/05/30 04:51:39;;;;;;;15.50;10.63;;;;;;;-140.66;100.00;55571.53;5034697;28;20108;-79
2023/05/30 04:54:27;;;;;;;13.43;9.68;;;;;;;-140.66;100.00;55571.53;5021476;28;20029;-81
2023/05/30 04:57:12;;;;;;;13.38;9.70;;;;;;;-140.66;100.00;55571.53;5035787;28;20364;-78
2023/05/30 04:59:59;;;;;;;15.40;10.27;;;;;;;-140.66;100.00;55571.53;5035528;28;20017;-80
2023/05/30 05:02:45;;;;;;;13.70;9.65;;;;;;;-140.66;100.00;55571.53;5021461;28;20040;-80
2023/05/30 05:05:30;;;;;;;14.13;9.40;;;;;;;-140.66;100.00;55571.53;5036037;28;20056;-79
2023/05/30 05:08:16;;;;;;;14.75;9.18;;;;;;;-140.66;100.00;55571.53;5035260;28;20021;-79
2023/05/30 05:11:03;;;;;;;16.23;10.18;;;;;;;-140.66;100.00;55571.53;5021416;28;20025;-79
2023/05/30 05:13:49;;;;;;;14.07;9.50;;;;;;;-140.66;100.00;55571.53;5040374;28;20076;-79
2023/05/30 05:16:35;;;;;;;16.95;9.43;;;;;;;-140.66;100.00;55571.53;5022449;28;20025;-79
2023/05/30 05:19:20;;;;;;;13.20;9.75;;;;;;;-140.66;100.00;55571.53;5037673;28;20201;-78
2023/05/30 05:22:06;;;;;;;14.98;8.35;;;;;;;-140.66;100.00;55571.53;5035433;28;20080;-79
2023/05/30 05:24:52;;;;;;;14.68;9.18;;;;;;;-140.66;100.00;55571.53;5020247;28;20112;-79
2023/05/30 05:27:39;;;;;;;17.40;9.55;;;;;;;-140.66;100.00;55571.53;5034984;28;20036;-79
2023/05/30 05:30:25;;;;;;;15.98;9.25;;;;;;;-140.66;100.00;55571.53;5022509;28;20044;-79
2023/05/30 05:33:13;;;;;;;12.80;9.13;;;;;;;-140.66;100.00;55571.53;5036657;28;20048;-78
2023/05/30 05:35:59;;;;;;;13.32;9.30;;;;;;;-140.66;100.00;55571.53;5034110;28;20029;-79
2023/05/30 05:38:45;;;;;;;13.27;9.85;;;;;;;-140.66;100.00;55571.53;5020773;28;20025;-79
2023/05/30 05:41:31;;;;;;;15.75;9.77;;;;;;;-140.66;100.00;55571.53;5034481;28;20029;-79
2023/05/30 05:44:16;;;;;;;13.60;8.93;;;;;;;-140.66;100.00;55571.53;5035083;28;20034;-79
2023/05/30 05:47:02;;;;;;;14.77;9.02;;;;;;;-140.66;100.00;55571.53;5034902;28;20029;-79
2023/05/30 05:49:48;;;;;;;18.30;9.40;;;;;;;-140.66;100.00;55571.53;5020700;28;20049;-79
2023/05/30 05:52:34;;;;;;;16.08;9.13;;;;;;;-140.66;100.00;55571.53;5037458;28;20033;-75
2023/05/30 05:55:19;;;;;;;18.40;9.20;;;;;;;-140.66;100.00;55571.53;5052272;28;20021;-76
2023/05/30 05:58:05;;;;;;;15.27;10.57;;;;;;;-140.66;100.00;55571.53;5052442;28;20026;-76
2023/05/30 06:00:52;;;;;;;11.25;8.77;;;;;;;-140.66;100.00;55571.53;5037032;28;20025;-77
2023/05/30 06:03:37;;;;;;;15.48;9.45;;;;;;;-140.66;100.00;55571.53;5044741;28;20025;-79
2023/05/30 06:06:23;;;;;;;17.08;9.82;;;;;;;-140.66;100.00;55571.53;5035362;28;20024;-79
2023/05/30 06:09:09;;;;;;;17.15;10.13;;;;;;;-140.66;100.00;55571.53;5021065;28;20041;-79
2023/05/30 06:11:55;;;;;;;16.23;9.25;;;;;;;-140.66;100.00;55571.53;5020999;28;20021;-80
2023/05/30 06:14:40;;;;;;;13.63;10.15;;;;;;;-140.66;100.00;55571.53;5020897;28;20567;-80
2023/05/30 06:17:27;;;;;;;14.38;9.25;;;;;;;-140.66;100.00;55571.53;5035383;28;20216;-80
2023/05/30 06:20:13;;;;;;;15.32;9.43;;;;;;;-140.66;100.00;55571.53;5046665;28;20104;-78
2023/05/30 06:22:59;;;;;;;15.55;9.25;;;;;;;-140.66;100.00;55571.53;5036975;28;20040;-80
2023/05/30 06:25:45;;;;;;;14.57;9.68;;;;;;;-140.66;100.00;55571.53;5021047;28;20026;-80
2023/05/30 06:28:30;;;;;;;14.18;9.88;;;;;;;-140.66;100.00;55571.53;5023799;28;20394;-79
2023/05/30 06:31:16;;;;;;;19.90;10.48;;;;;;;-140.66;100.00;55571.53;5023485;28;20107;-79
2023/05/30 06:34:02;;;;;;;17.45;9.60;;;;;;;-140.66;100.00;55571.53;5038688;28;20356;-79
2023/05/30 06:36:47;;;;;;;17.25;10.15;;;;;;;-140.66;100.00;55571.53;5024041;28;20021;-80
2023/05/30 06:39:33;;;;;;;16.30;9.45;;;;;;;-140.66;100.00;55571.53;5023895;28;20030;-80
2023/05/30 06:42:20;;;;;;;20.65;9.45;;;;;;;-140.66;100.00;55571.53;5024798;28;20029;-79
2023/05/30 06:45:07;;;;;;;14.20;9.25;;;;;;;-140.66;100.00;55571.53;5037919;28;20351;-80
2023/05/30 06:47:52;;;;;;;20.63;10.65;;;;;;;-140.66;100.00;55571.53;5038220;28;20045;-79
2023/05/30 06:50:38;;;;;;;15.05;10.10;;;;;;;-140.66;100.00;55571.53;5038610;28;20437;-78
2023/05/30 06:53:24;;;;;;;12.55;10.32;;;;;;;-140.66;100.00;55571.53;5025405;28;20476;-79
2023/05/30 06:56:10;;;;;;;15.50;10.07;;;;;;;-140.66;100.00;55571.53;5039116;28;20059;-79
2023/05/30 06:58:56;;;;;;;14.98;9.73;;;;;;;-140.66;100.00;55571.53;5037831;28;20124;-80
2023/05/30 07:01:42;;;;;;;14.57;9.70;;;;;;;-140.66;100.00;55571.53;5037290;28;20052;-79
2023/05/30 07:04:27;;;;;;;13.52;10.10;;;;;;;-140.66;100.00;55571.53;5038276;28;20083;-79
2023/05/30 07:07:13;;;;;;;13.43;9.63;;;;;;;-140.66;100.00;55571.53;5039041;28;20048;-80
2023/05/30 07:09:59;;;;;;;16.58;10.63;;;;;;;-140.66;100.00;55571.53;5023447;28;20359;-80
2023/05/30 07:12:45;;;;;;;14.55;9.63;;;;;;;-140.66;100.00;55571.53;5024527;28;20021;-80
2023/05/30 07:15:31;;;;;;;11.35;8.63;;;;;;;-140.66;100.00;55571.53;5038546;28;20033;-79
2023/05/30 07:18:17;;;;;;;15.57;9.82;;;;;;;-140.66;100.00;55571.53;5039380;28;20071;-79
2023/05/30 07:21:02;;;;;;;17.80;9.95;;;;;;;-140.66;100.00;55571.53;5036829;28;20065;-80
2023/05/30 07:23:49;;;;;;;14.25;8.50;;;;;;;-140.66;100.00;55571.53;5037805;28;20040;-79
2023/05/30 07:26:35;;;;;;;11.23;8.10;;;;;;;-140.66;100.00;55571.53;5038869;28;20319;-78
2023/05/30 07:29:21;;;;;;;14.10;8.55;;;;;;;-140.66;100.00;55571.53;5042960;28;20093;-79
2023/05/30 07:32:07;;;;;;;12.00;8.43;;;;;;;-140.66;100.00;55571.53;5049157;28;20055;-78
2023/05/30 07:34:53;;;;;;;11.25;8.00;;;;;;;-140.66;100.00;55571.53;5037349;28;20036;-79
2023/05/30 07:37:38;;;;;;;15.50;7.70;;;;;;;-140.66;100.00;55571.53;5023225;28;20088;-80
2023/05/30 07:40:24;;;;;;;13.50;7.60;;;;;;;-140.66;100.00;55571.53;5038107;28;20053;-80
2023/05/30 07:43:10;;;;;;;9.35;6.28;;;;;;;-140.66;100.00;55571.53;5041352;28;20499;-79
2023/05/30 07:45:56;;;;;;;10.38;6.60;;;;;;;-140.66;100.00;55571.53;5023568;28;20178;-79
2023/05/30 07:48:42;;;;;;;10.25;7.18;;;;;;;-140.66;100.00;55571.53;5024679;28;20017;-80
2023/05/30 07:51:27;;;;;;;11.85;6.60;;;;;;;-140.66;100.00;55571.53;5024279;28;20044;-81
2023/05/30 07:54:13;;;;;;;8.43;6.30;;;;;;;-140.66;100.00;55571.53;5038470;28;20090;-79
2023/05/30 07:57:00;;;;;;;9.93;6.57;;;;;;;-140.66;100.00;55571.53;5023632;28;20112;-79
2023/05/30 07:59:48;;;;;;;12.57;6.85;;;;;;;-140.66;100.00;55571.53;5023244;28;20082;-79
2023/05/30 08:02:35;;;;;;;10.15;6.10;;;;;;;-140.66;100.00;55571.53;5024124;28;20116;-80
2023/05/30 08:05:20;;;;;;;10.40;5.93;;;;;;;-140.66;100.00;55571.53;5037216;28;20029;-80
2023/05/30 08:08:07;;;;;;;8.90;5.65;;;;;;;-140.66;100.00;55571.53;5038042;28;20339;-79
2023/05/30 08:10:53;;;;;;;26.60;7.05;;;;;;;-140.66;100.00;55571.53;5023111;28;20025;-79
2023/05/30 08:13:38;;;;;;;8.90;5.82;;;;;;;-140.66;100.00;55571.53;5023974;28;20037;-79
2023/05/30 08:16:33;;;;;;;11.30;7.00;;;;;;;-140.66;100.00;55571.53;5037553;28;20091;-80
2023/05/30 08:19:21;;;;;;;8.10;5.57;;;;;;;-140.66;100.00;55571.53;5022380;28;20116;-81
2023/05/30 08:22:07;;;;;;;9.63;6.20;;;;;;;-140.66;100.00;55571.53;5023189;28;20045;-80
2023/05/30 08:24:59;;;;;;;10.23;5.22;;;;;;;-140.66;100.00;55571.53;5023761;28;20331;-80
2023/05/30 08:27:44;;;;;;;9.07;6.05;;;;;;;-140.66;100.00;55571.53;5022453;28;20040;-79
2023/05/30 08:30:31;;;;;;;18.88;5.60;;;;;;;-140.66;100.00;55571.53;5035754;28;20044;-81
2023/05/30 08:33:17;;;;;;;13.70;5.30;;;;;;;-140.66;100.00;55571.53;5037681;28;20044;-79
2023/05/30 08:36:03;;;;;;;9.20;5.60;;;;;;;-140.66;100.00;55571.53;5036728;28;20029;-79
2023/05/30 08:38:53;;;;;;;8.80;5.00;;;;;;;-140.66;100.00;55571.53;5022029;28;20037;-80
2023/05/30 08:41:39;;;;;;;10.23;4.50;;;;;;;-140.66;100.00;55571.53;5023185;28;20126;-79
2023/05/30 08:44:27;;;;;;;9.20;5.30;;;;;;;-140.66;100.00;55571.53;5035681;28;20029;-80
2023/05/30 08:47:16;;;;;;;7.70;4.75;;;;;;;-140.66;100.00;55571.53;5021556;28;20021;-80
2023/05/30 08:50:09;;;;;;;12.00;5.10;;;;;;;-140.66;100.00;55571.53;5036010;28;20025;-81
2023/05/30 08:53:12;;;;;;;9.13;5.25;;;;;;;-140.66;100.00;55571.53;5022166;28;20431;-78
2023/05/30 08:56:05;;;;;;;9.65;4.80;;;;;;;-140.66;100.00;55571.53;5036988;28;20041;-78
2023/05/30 08:58:52;;;;;;;6.05;4.50;;;;;;;-140.66;100.00;55571.53;5036036;28;20476;-79
2023/05/30 09:01:39;;;;;;;9.32;4.93;;;;;;;-140.66;100.00;55571.53;5022708;28;20120;-79
2023/05/30 09:04:25;;;;;;;9.27;4.90;;;;;;;-140.66;100.00;55571.53;5021985;28;20025;-80
2023/05/30 09:07:14;;;;;;;6.75;4.90;;;;;;;-140.66;100.00;55571.53;5035146;28;20025;-80
2023/05/30 09:10:00;;;;;;;15.82;5.60;;;;;;;-140.66;100.00;55571.53;5024248;28;20458;-78
2023/05/30 09:12:53;;;;;;;8.63;4.43;;;;;;;28.65;90.10;101071.59;5093320;27;20861;-79
2023/05/30 09:15:39;;;;;;;15.48;4.97;;;;;;;29.12;87.83;101073.69;5102823;28;20100;-80
2023/05/30 09:18:32;;;;;;;7.53;5.03;;;;;;;28.85;86.56;101060.75;5098507;28;20056;-80
2023/05/30 09:21:18;;;;;;;7.80;4.78;;;;;;;28.11;89.74;101069.06;5092485;28;20035;-77
2023/05/30 09:24:05;;;;;;;8.35;5.05;;;;;;;28.19;93.87;101066.56;5094580;28;20111;-78
2023/05/30 09:27:05;;;;;;;12.48;5.50;;;;;;;27.89;99.76;101063.78;5093720;28;20021;-78
2023/05/30 09:29:52;;;;;;;8.90;6.07;;;;;;;27.52;100.00;101065.06;5107683;28;20119;-79
2023/05/30 09:32:38;;;;;;;8.55;5.72;;;;;;;27.53;100.00;101062.25;5091469;28;20078;-79
2023/05/30 09:35:25;;;;;;;13.98;6.03;;;;;;;27.22;100.00;101054.13;5092495;28;20043;-78
2023/05/30 09:38:15;;;;;;;13.57;6.55;;;;;;;26.87;100.00;101061.44;5116785;28;20131;-78
2023/05/30 09:41:03;;;;;;;6.95;5.30;;;;;;;27.05;100.00;101065.34;5118102;28;20026;-79
2023/05/30 09:43:53;;;;;;;8.95;6.05;;;;;;;26.99;100.00;101063.16;5130434;28;20463;-80
2023/05/30 09:46:38;;;;;;;13.35;6.05;;;;;;;26.84;100.00;101051.78;5138405;28;20028;-79
2023/05/30 09:49:27;;;;;;;12.95;5.68;;;;;;;26.61;100.00;101055.41;5136043;28;20031;-80
2023/05/30 09:52:13;;;;;;;8.32;5.38;;;;;;;27.37;100.00;101047.50;5131668;28;20039;-79
2023/05/30 09:55:00;;;;;;;6.82;5.80;;;;;;;27.14;100.00;101043.09;5131912;28;20027;-80
2023/05/30 09:57:48;;;;;;;9.85;6.07;;;;;;;27.37;100.00;101045.63;5117579;28;20140;-79
2023/05/30 10:00:33;;;;;;;9.60;6.00;;;;;;;27.43;100.00;101031.69;5131071;28;20038;-79
2023/05/30 10:03:20;;;;;;;8.30;5.60;;;;;;;-140.66;0.00;55571.53;5117106;28;20027;-79
2023/05/30 10:06:13;;;;;;;8.35;5.47;;;;;;;-140.66;100.00;55571.53;5131781;28;20019;-79
2023/05/30 10:08:59;;;;;;;9.95;5.32;;;;;;;-140.66;100.00;55571.53;5132351;28;20050;-79
2023/05/30 10:11:46;;;;;;;8.18;4.88;;;;;;;-140.66;100.00;55571.53;5132017;28;20044;-80
2023/05/30 10:14:32;;;;;;;7.35;4.78;;;;;;;-140.66;100.00;55571.53;5116644;28;20394;-80
2023/05/30 10:17:22;;;;;;;6.60;5.05;;;;;;;-140.66;100.00;55571.53;5130949;28;20084;-79
2023/05/30 10:20:11;;;;;;;9.90;5.20;;;;;;;-140.66;100.00;55571.53;5132186;28;20027;-80
2023/05/30 10:22:59;;;;;;;10.73;5.40;;;;;;;-140.66;100.00;55571.53;5124238;28;20053;-79
2023/05/30 10:25:49;;;;;;;5.82;4.57;;;;;;;-140.66;100.00;55571.53;5102825;28;20268;-80
2023/05/30 10:28:37;;;;;;;9.48;4.90;;;;;;;-140.66;100.00;55571.53;5103412;28;20448;-80
2023/05/30 10:31:25;;;;;;;7.28;4.72;;;;;;;-140.66;100.00;55571.53;5103037;28;20043;-79
2023/05/30 10:34:13;;;;;;;7.90;4.78;;;;;;;-140.66;100.00;55571.53;5101946;28;20042;-79
2023/05/30 10:36:59;;;;;;;8.00;5.38;;;;;;;-140.66;100.00;55571.53;5117214;28;20024;-80
2023/05/30 10:40:22;;;;;;;11.43;5.05;;;;;;;-140.66;100.00;55571.53;5116647;28;20100;-80
2023/05/30 10:43:29;;;;;;;8.73;5.07;;;;;;;-140.66;100.00;55571.53;5117892;28;20459;-79
2023/05/30 10:46:27;;;;;;;7.65;4.88;;;;;;;-140.66;100.00;55571.53;5105151;27;20077;-79
2023/05/30 10:49:18;;;;;;;14.27;5.13;;;;;;;-140.66;100.00;55571.53;5103360;28;20027;-80
2023/05/30 10:52:10;;;;;;;10.60;5.20;;;;;;;-140.66;100.00;55571.53;5117176;28;20038;-80
2023/05/30 10:54:56;;;;;;;9.35;5.30;;;;;;;-140.66;100.00;55571.53;5101392;28;20380;-81
2023/05/30 10:57:41;;;;;;;11.35;4.53;;;;;;;-140.66;100.00;55571.53;5118269;28;20019;-80
2023/05/30 11:00:29;;;;;;;6.50;4.70;;;;;;;-140.66;100.00;55571.53;5116792;28;20019;-80
2023/05/30 11:03:35;;;;;;;10.63;4.85;;;;;;;-140.66;100.00;55571.53;5101942;28;20106;-80
2023/05/30 11:06:21;;;;;;;7.10;5.30;;;;;;;-140.66;100.00;55571.53;5101278;28;20370;-80
2023/05/30 11:09:11;;;;;;;11.68;4.80;;;;;;;-140.66;100.00;55571.53;5116626;28;20086;-79
2023/05/30 11:12:00;;;;;;;9.98;4.88;;;;;;;-140.66;100.00;55571.53;5116506;28;20371;-79
2023/05/30 11:14:55;;;;;;;8.18;4.75;;;;;;;-140.66;100.00;55571.53;5102239;28;20027;-79
2023/05/30 11:17:41;;;;;;;8.13;4.82;;;;;;;-140.66;100.00;55571.53;5115846;28;20430;-80
2023/05/30 11:20:27;;;;;;;5.70;4.40;;;;;;;-140.66;100.00;55571.53;5101361;28;20028;-80
2023/05/30 11:23:13;;;;;;;8.35;5.15;;;;;;;-140.66;100.00;55571.53;5116427;28;20028;-79
2023/05/30 11:25:59;;;;;;;11.60;5.82;;;;;;;-140.66;100.00;55571.53;5117317;28;20086;-79
2023/05/30 11:28:45;;;;;;;8.73;4.93;;;;;;;-140.66;100.00;55571.53;5116994;28;20027;-79
2023/05/30 11:31:32;;;;;;;7.88;5.07;;;;;;;-140.66;100.00;55571.53;5115769;28;20363;-79
2023/05/30 11:34:18;;;;;;;7.72;4.90;;;;;;;-140.66;100.00;55571.53;5115427;28;20035;-79
2023/05/30 11:37:06;;;;;;;8.65;5.78;;;;;;;-140.66;100.00;55571.53;5116144;28;20102;-79
2023/05/30 11:39:55;;;;;;;8.35;5.90;;;;;;;-140.66;100.00;55571.53;5116298;28;20062;-78
2023/05/30 11:42:41;;;;;;;7.38;5.40;;;;;;;-140.66;100.00;55571.53;5118045;28;20086;-86
2023/05/30 11:45:29;;;;;;;10.93;5.53;;;;;;;-140.66;100.00;55571.53;5103213;28;20020;-78
2023/05/30 11:48:17;;;;;;;10.65;5.43;;;;;;;-140.66;100.00;55571.53;5116087;28;20038;-78
2023/05/30 11:51:03;;;;;;;8.27;4.95;;;;;;;-140.66;100.00;55571.53;5117019;28;20019;-79
2023/05/30 11:53:48;;;;;;;9.25;5.30;;;;;;;-140.66;100.00;55571.53;5114047;28;20101;-76
2023/05/30 11:56:34;;;;;;;9.48;4.95;;;;;;;-140.66;100.00;55571.53;5135162;28;20016;-77
2023/05/30 11:59:22;;;;;;;9.15;5.50;;;;;;;-140.66;100.00;55571.53;5116813;28;20020;-77
2023/05/30 12:02:11;;;;;;;7.57;5.25;;;;;;;-140.66;100.00;55571.53;5103382;28;20020;-78
2023/05/30 12:05:03;;;;;;;6.47;5.07;;;;;;;-140.66;100.00;55571.53;5102598;28;20392;-79
2023/05/30 12:07:51;;;;;;;9.23;5.05;;;;;;;-140.66;100.00;55571.53;5116967;28;20028;-77
2023/05/30 12:10:37;;;;;;;8.77;5.20;;;;;;;-140.66;100.00;55571.53;5123841;27;20016;-79
2023/05/30 12:13:23;;;;;;;9.30;5.90;;;;;;;-140.66;100.00;55571.53;5107198;28;20123;-79
2023/05/30 12:16:10;;;;;;;7.88;5.43;;;;;;;-140.66;100.00;55571.53;5113090;27;20448;-79
2023/05/30 12:18:57;;;;;;;7.95;5.07;;;;;;;-140.66;100.00;55571.53;5116556;28;20471;-78
2023/05/30 12:21:43;;;;;;;10.80;5.45;;;;;;;-140.66;100.00;55571.53;5101029;28;20432;-78
2023/05/30 12:24:29;;;;;;;8.40;5.20;;;;;;;-140.66;100.00;55571.53;5100396;28;20024;-78
2023/05/30 12:27:17;;;;;;;15.27;5.38;;;;;;;-140.66;100.00;55571.53;5100871;28;20059;-77
2023/05/30 12:30:16;;;;;;;14.25;5.97;;;;;;;-140.66;100.00;55571.53;5117161;28;20436;-78
2023/05/30 12:33:15;;;;;;;6.82;5.20;;;;;;;-140.66;100.00;55571.53;5116252;28;20020;-78